createdAt,value
2023-03-27T00:01:13.274Z,6.72
2023-03-27T00:03:40.862Z,7.00
2023-03-27T00:06:11.934Z,9.23
2023-03-27T00:11:08.066Z,8.63
2023-03-27T00:13:36.572Z,8.98
2023-03-27T00:16:16.323Z,11.45
2023-03-27T00:18:43.127Z,8.43
2023-03-27T00:21:09.884Z,9.05
2023-03-27T00:23:36.710Z,9.48
2023-03-27T00:26:04.387Z,11.18
2023-03-27T00:28:31.168Z,12.20
2023-03-27T00:30:58.540Z,12.55
2023-03-27T00:33:26.000Z,14.95
2023-03-27T00:35:52.995Z,12.25
2023-03-27T00:38:20.939Z,10.77
2023-03-27T00:40:50.817Z,8.30
2023-03-27T00:43:26.529Z,9.82
2023-03-27T00:46:08.081Z,9.55
2023-03-27T00:48:37.745Z,9.60
2023-03-27T00:51:05.826Z,8.05
2023-03-27T00:53:33.638Z,10.70
2023-03-27T00:56:03.792Z,17.83
2023-03-27T00:58:41.246Z,9.80
2023-03-27T01:01:12.654Z,15.85
2023-03-27T01:03:42.488Z,9.30
2023-03-27T01:06:11.212Z,13.45
2023-03-27T01:08:38.667Z,12.02
2023-03-27T01:11:43.401Z,9.98
2023-03-27T01:14:30.519Z,8.65
2023-03-27T01:17:00.394Z,9.90
2023-03-27T01:19:33.123Z,8.35
2023-03-27T01:22:44.110Z,5.15
2023-03-27T01:25:10.797Z,7.82
2023-03-27T01:28:06.678Z,8.25
2023-03-27T01:30:38.929Z,10.15
2023-03-27T01:33:09.031Z,8.18
2023-03-27T01:35:51.248Z,9.68
2023-03-27T01:39:00.218Z,16.42
2023-03-27T01:41:47.370Z,9.43
2023-03-27T01:44:26.002Z,10.52
2023-03-27T01:47:30.185Z,14.00
2023-03-27T01:50:37.424Z,12.73
2023-03-27T01:53:12.999Z,9.93
2023-03-27T01:55:45.622Z,11.80
2023-03-27T01:58:19.156Z,10.23
2023-03-27T02:00:53.241Z,11.20
2023-03-27T02:03:30.411Z,10.95
2023-03-27T02:06:12.321Z,7.10
2023-03-27T02:08:58.734Z,6.57
2023-03-27T02:11:30.616Z,11.77
2023-03-27T02:14:07.479Z,10.73
2023-03-27T02:16:46.999Z,10.43
2023-03-27T02:19:20.820Z,11.90
2023-03-27T02:21:48.188Z,7.05
2023-03-27T02:24:19.344Z,11.68
2023-03-27T02:26:51.790Z,10.45
2023-03-27T02:29:43.937Z,8.05
2023-03-27T02:32:17.445Z,6.53
2023-03-27T02:35:01.460Z,11.27
2023-03-27T02:37:49.853Z,5.20
2023-03-27T02:40:41.309Z,10.07
2023-03-27T02:43:48.989Z,7.50
2023-03-27T02:46:31.551Z,8.52
2023-03-27T02:49:04.608Z,15.45
2023-03-27T02:51:38.104Z,7.72
2023-03-27T02:54:27.680Z,10.57
2023-03-27T02:57:03.505Z,11.85
2023-03-27T02:59:52.884Z,6.68
2023-03-27T03:02:26.705Z,10.63
2023-03-27T03:05:06.227Z,9.55
2023-03-27T03:07:40.233Z,6.82
2023-03-27T03:10:09.791Z,11.90
2023-03-27T03:12:36.884Z,12.00
2023-03-27T03:15:04.219Z,9.77
2023-03-27T03:17:31.594Z,6.50
2023-03-27T03:19:58.287Z,8.68
2023-03-27T03:22:26.380Z,10.52
2023-03-27T03:24:53.566Z,11.90
2023-03-27T03:27:25.824Z,8.10
2023-03-27T03:30:01.520Z,12.23
2023-03-27T03:32:30.975Z,9.70
2023-03-27T03:34:58.000Z,10.90
2023-03-27T03:37:28.669Z,10.57
2023-03-27T03:39:57.309Z,7.80
2023-03-27T03:42:24.559Z,6.68
2023-03-27T03:44:54.109Z,9.18
2023-03-27T03:47:22.503Z,11.75
2023-03-27T03:49:50.435Z,12.10
2023-03-27T03:52:17.610Z,13.95
2023-03-27T03:54:46.564Z,7.50
2023-03-27T03:57:13.881Z,9.77
2023-03-27T03:59:41.360Z,9.15
2023-03-27T04:02:43.663Z,9.43
2023-03-27T04:05:13.396Z,16.27
2023-03-27T04:07:41.239Z,14.70
2023-03-27T04:10:27.845Z,13.95
2023-03-27T04:12:55.545Z,8.25
2023-03-27T04:15:27.455Z,11.20
2023-03-27T04:18:06.199Z,10.82
2023-03-27T04:20:34.754Z,10.05
2023-03-27T04:23:05.950Z,11.25
2023-03-27T04:25:36.639Z,12.65
2023-03-27T04:28:03.688Z,11.18
2023-03-27T04:30:34.852Z,12.85
2023-03-27T04:33:20.325Z,12.43
2023-03-27T04:36:10.660Z,10.95
2023-03-27T04:39:13.061Z,15.30
2023-03-27T04:41:39.981Z,10.93
2023-03-27T04:44:07.424Z,11.20
2023-03-27T04:46:38.916Z,9.18
2023-03-27T04:49:09.513Z,11.52
2023-03-27T04:51:49.392Z,15.27
2023-03-27T04:54:17.924Z,9.80
2023-03-27T04:56:46.700Z,12.93
2023-03-27T04:59:15.564Z,9.23
2023-03-27T05:01:43.443Z,11.68
2023-03-27T05:04:10.302Z,8.68
2023-03-27T05:07:00.362Z,9.60
2023-03-27T05:09:27.396Z,12.68
2023-03-27T05:11:54.134Z,6.07
2023-03-27T05:14:23.048Z,10.80
2023-03-27T05:16:52.399Z,12.32
2023-03-27T05:19:21.055Z,8.88
2023-03-27T05:21:56.540Z,9.48
2023-03-27T05:24:23.461Z,10.07
2023-03-27T05:26:50.289Z,8.38
2023-03-27T05:29:17.195Z,8.07
2023-03-27T05:31:46.374Z,16.90
2023-03-27T05:34:46.121Z,10.80
2023-03-27T05:37:16.586Z,10.07
2023-03-27T05:40:17.497Z,9.18
2023-03-27T05:42:47.526Z,10.68
2023-03-27T05:45:15.521Z,12.15
2023-03-27T05:47:46.409Z,10.90
2023-03-27T05:50:14.657Z,7.05
2023-03-27T05:52:42.214Z,10.98
2023-03-27T05:55:10.498Z,10.43
2023-03-27T05:57:40.646Z,11.85
2023-03-27T06:00:14.053Z,8.82
2023-03-27T06:02:43.835Z,9.77
2023-03-27T06:05:14.352Z,8.45
2023-03-27T06:07:47.709Z,7.32
2023-03-27T06:10:20.362Z,8.93
2023-03-27T06:13:06.569Z,8.65
2023-03-27T06:15:42.764Z,7.75
2023-03-27T06:18:22.203Z,8.07
2023-03-27T06:20:49.029Z,13.45
2023-03-27T06:23:15.973Z,12.38
2023-03-27T06:25:44.213Z,10.77
2023-03-27T06:28:13.353Z,11.30
2023-03-27T06:30:45.111Z,13.23
2023-03-27T06:33:27.496Z,10.45
2023-03-27T06:36:00.838Z,14.35
2023-03-27T06:38:33.468Z,15.50
2023-03-27T06:43:49.902Z,12.43
2023-03-27T06:46:42.695Z,12.60
2023-03-27T06:49:37.593Z,12.32
2023-03-27T06:52:17.736Z,13.55
2023-03-27T06:54:46.252Z,11.48
2023-03-27T06:57:13.701Z,12.52
2023-03-27T06:59:48.945Z,13.45
2023-03-27T07:02:20.761Z,10.18
2023-03-27T07:04:57.715Z,11.63
2023-03-27T07:07:36.187Z,8.60
2023-03-27T07:10:03.669Z,11.13
2023-03-27T07:12:31.040Z,11.05
2023-03-27T07:14:57.998Z,14.38
2023-03-27T07:17:34.880Z,15.20
2023-03-27T07:20:14.005Z,11.10
2023-03-27T07:22:43.013Z,18.33
2023-03-27T07:25:20.028Z,8.60
2023-03-27T07:27:47.376Z,10.57
2023-03-27T07:30:14.388Z,11.35
2023-03-27T07:32:44.670Z,12.20
2023-03-27T07:35:12.814Z,14.93
2023-03-27T07:38:03.279Z,14.15
2023-03-27T07:40:40.076Z,9.32
2023-03-27T07:43:45.868Z,3.53
2023-03-27T07:46:12.960Z,3.63
2023-03-27T07:48:40.034Z,8.68
2023-03-27T07:51:14.362Z,5.78
2023-03-27T07:53:43.701Z,7.22
2023-03-27T07:56:23.585Z,9.15
2023-03-27T07:59:06.918Z,4.72
2023-03-27T08:01:34.288Z,3.00
2023-03-27T08:04:01.758Z,6.45
2023-03-27T08:06:29.293Z,3.17
2023-03-27T08:08:57.176Z,7.45
2023-03-27T08:11:30.681Z,4.32
2023-03-27T08:13:59.059Z,6.75
2023-03-27T08:16:29.645Z,3.80
2023-03-27T08:18:58.694Z,5.57
2023-03-27T08:21:26.596Z,6.95
2023-03-27T08:23:57.756Z,6.53
2023-03-27T08:26:33.927Z,8.95
2023-03-27T08:29:09.000Z,9.85
2023-03-27T08:31:37.085Z,12.70
2023-03-27T08:34:05.341Z,15.68
2023-03-27T08:36:58.426Z,9.02
2023-03-27T08:39:34.874Z,6.00
2023-03-27T08:42:08.404Z,5.43
2023-03-27T08:44:38.619Z,5.45
2023-03-27T08:47:33.255Z,8.13
2023-03-27T08:50:22.032Z,6.95
2023-03-27T08:52:52.885Z,3.58
2023-03-27T08:55:38.528Z,6.40
2023-03-27T08:58:21.630Z,3.70
2023-03-27T09:01:22.304Z,3.67
2023-03-27T09:04:28.443Z,3.40
2023-03-27T09:07:15.378Z,6.45
2023-03-27T09:10:22.368Z,6.38
2023-03-27T09:12:56.880Z,5.65
2023-03-27T09:15:28.470Z,6.43
2023-03-27T09:18:02.969Z,7.05
2023-03-27T09:21:07.918Z,6.13
2023-03-27T09:23:46.503Z,5.68
2023-03-27T09:26:47.624Z,7.38
2023-03-27T09:29:39.464Z,7.35
2023-03-27T09:32:26.690Z,4.20
2023-03-27T09:35:03.770Z,4.90
2023-03-27T09:40:00.424Z,3.00
2023-03-27T09:42:41.281Z,4.95
2023-03-27T09:45:12.637Z,3.90
2023-03-27T09:48:04.197Z,4.80
2023-03-27T09:50:47.480Z,5.68
2023-03-27T09:53:28.033Z,5.57
2023-03-27T09:56:12.843Z,6.53
2023-03-27T09:58:46.259Z,4.32
2023-03-27T10:01:16.159Z,4.15
2023-03-27T10:03:51.898Z,5.75
2023-03-27T10:06:38.786Z,5.55
2023-03-27T10:09:27.666Z,5.70
2023-03-27T10:12:06.096Z,8.85
2023-03-27T10:14:39.262Z,5.18
2023-03-27T10:17:13.034Z,6.03
2023-03-27T10:19:42.155Z,4.53
2023-03-27T10:22:31.100Z,3.80
2023-03-27T10:25:04.898Z,3.55
2023-03-27T10:27:53.009Z,6.97
2023-03-27T10:30:38.140Z,5.85
2023-03-27T10:33:41.376Z,3.38
2023-03-27T10:36:20.378Z,4.95
2023-03-27T10:38:54.939Z,2.53
2023-03-27T10:41:48.644Z,4.53
2023-03-27T10:44:19.245Z,2.85
2023-03-27T10:46:53.612Z,6.47
2023-03-27T10:49:42.760Z,5.05
2023-03-27T10:52:23.324Z,4.13
2023-03-27T10:55:44.991Z,4.03
2023-03-27T10:58:52.140Z,2.25
2023-03-27T11:01:31.379Z,5.85
2023-03-27T11:04:09.145Z,2.00
2023-03-27T11:06:48.839Z,0.73
2023-03-27T11:09:34.387Z,0.68
2023-03-27T11:12:16.850Z,0.50
2023-03-27T11:15:13.614Z,0.50
2023-03-27T11:17:48.175Z,0.45
2023-03-27T11:20:31.454Z,1.30
2023-03-27T11:23:17.341Z,0.20
2023-03-27T11:26:06.098Z,0.45
2023-03-27T11:28:41.258Z,0.40
2023-03-27T11:31:34.613Z,0.43
2023-03-27T11:34:07.425Z,0.35
2023-03-27T11:36:41.883Z,2.95
2023-03-27T11:39:36.574Z,2.95
2023-03-27T11:42:17.895Z,4.22
2023-03-27T11:44:47.989Z,1.05
2023-03-27T11:48:10.208Z,0.50
2023-03-27T11:50:50.521Z,0.82
2023-03-27T11:53:45.406Z,0.00
2023-03-27T11:56:24.836Z,4.10
2023-03-27T11:59:23.114Z,0.90
2023-03-27T12:02:02.860Z,0.50
2023-03-27T12:04:59.710Z,0.35
2023-03-27T12:07:48.167Z,0.10
2023-03-27T12:10:30.240Z,1.67
2023-03-27T12:13:40.735Z,0.63
2023-03-27T12:16:22.556Z,1.30
2023-03-27T12:20:01.971Z,0.10
2023-03-27T12:22:39.122Z,0.40
2023-03-27T12:25:33.634Z,0.17
2023-03-27T12:28:53.018Z,0.40
2023-03-27T12:31:53.108Z,0.63
2023-03-27T12:34:41.621Z,2.10
2023-03-27T12:37:13.707Z,0.95
2023-03-27T12:39:54.196Z,0.47
2023-03-27T12:42:43.947Z,0.47
2023-03-27T12:45:22.616Z,1.40
2023-03-27T12:48:10.765Z,0.10
2023-03-27T12:50:53.757Z,0.17
2023-03-27T12:53:29.750Z,0.22
2023-03-27T12:56:19.539Z,0.63
2023-03-27T12:58:52.937Z,1.55
2023-03-27T13:02:07.023Z,0.63
2023-03-27T13:04:49.927Z,0.50
2023-03-27T13:07:24.796Z,1.20
2023-03-27T13:10:29.949Z,0.52
2023-03-27T13:13:18.524Z,0.20
2023-03-27T13:15:57.779Z,2.10
2023-03-27T13:18:55.608Z,2.28
2023-03-27T13:22:04.070Z,1.83
2023-03-27T13:24:38.599Z,1.00
2023-03-27T13:27:24.403Z,0.75
2023-03-27T13:29:52.796Z,0.52
2023-03-27T13:32:33.732Z,0.20
2023-03-27T13:35:19.260Z,0.50
2023-03-27T13:37:54.410Z,1.40
2023-03-27T13:40:41.366Z,1.65
2023-03-27T13:43:33.809Z,1.30
2023-03-27T13:46:16.329Z,0.65
2023-03-27T13:48:48.695Z,1.10
2023-03-27T13:51:28.378Z,0.47
2023-03-27T13:54:23.389Z,1.52
2023-03-27T13:57:09.270Z,3.03
2023-03-27T13:59:54.126Z,0.17
2023-03-27T14:02:48.444Z,0.80
2023-03-27T14:06:00.023Z,0.45
2023-03-27T14:08:57.237Z,0.63
2023-03-27T14:11:50.778Z,2.08
2023-03-27T14:14:52.746Z,0.35
2023-03-27T14:17:31.709Z,0.10
2023-03-27T14:20:19.243Z,0.43
2023-03-27T14:23:03.695Z,0.32
2023-03-27T14:25:53.912Z,0.85
2023-03-27T14:28:51.772Z,1.73
2023-03-27T14:31:35.431Z,1.30
2023-03-27T14:34:15.977Z,0.68
2023-03-27T14:36:47.593Z,2.25
2023-03-27T14:39:27.860Z,0.73
2023-03-27T14:42:02.908Z,0.30
2023-03-27T14:44:33.403Z,0.73
2023-03-27T14:47:12.054Z,1.65
2023-03-27T14:49:49.136Z,0.55
2023-03-27T14:52:36.179Z,0.75
2023-03-27T14:55:24.274Z,0.35
2023-03-27T14:58:11.911Z,1.25
2023-03-27T15:00:41.670Z,0.95
2023-03-27T15:03:22.048Z,0.20
2023-03-27T15:06:05.807Z,0.32
2023-03-27T15:08:46.806Z,0.10
2023-03-27T15:11:41.113Z,2.15
2023-03-27T15:14:20.767Z,0.30
2023-03-27T15:17:15.776Z,0.90
2023-03-27T15:19:49.614Z,1.40
2023-03-27T15:22:29.865Z,0.03
2023-03-27T15:25:09.365Z,0.25
2023-03-27T15:27:49.531Z,0.70
2023-03-27T15:30:43.797Z,1.42
2023-03-27T15:33:20.408Z,1.20
2023-03-27T15:35:53.283Z,0.30
2023-03-27T15:38:28.860Z,1.00
2023-03-27T15:41:17.277Z,0.50
2023-03-27T15:43:44.354Z,0.55
2023-03-27T15:46:19.940Z,0.30
2023-03-27T15:48:55.457Z,0.63
2023-03-27T15:51:25.278Z,1.00
2023-03-27T15:53:55.805Z,1.55
2023-03-27T15:56:27.367Z,0.38
2023-03-27T15:59:10.679Z,2.72
2023-03-27T16:01:54.464Z,0.45
2023-03-27T16:04:25.813Z,1.83
2023-03-27T16:07:03.562Z,2.03
2023-03-27T16:09:34.379Z,0.75
2023-03-27T16:12:01.345Z,0.50
2023-03-27T16:14:43.844Z,0.17
2023-03-27T16:17:20.627Z,0.65
2023-03-27T16:19:56.439Z,0.40
2023-03-27T16:22:24.736Z,2.85
2023-03-27T16:24:52.494Z,0.68
2023-03-27T16:27:23.122Z,1.15
2023-03-27T16:29:51.599Z,0.38
2023-03-27T16:32:20.541Z,0.47
2023-03-27T16:34:53.454Z,0.40
2023-03-27T16:37:24.004Z,0.55
2023-03-27T16:39:51.169Z,0.85
2023-03-27T16:42:21.737Z,2.15
2023-03-27T16:44:50.833Z,0.40
2023-03-27T16:47:18.210Z,0.50
2023-03-27T16:49:49.178Z,0.77
2023-03-27T16:52:20.498Z,0.55
2023-03-27T16:54:47.584Z,0.35
2023-03-27T16:57:14.581Z,0.40
2023-03-27T16:59:41.415Z,0.38
2023-03-27T17:02:10.966Z,0.68
2023-03-27T17:04:37.895Z,1.83
2023-03-27T17:07:05.537Z,1.38
2023-03-27T17:09:33.116Z,0.93
2023-03-27T17:11:59.956Z,0.63
2023-03-27T17:14:27.410Z,0.85
2023-03-27T17:16:54.302Z,1.40
2023-03-27T17:19:21.457Z,2.13
2023-03-27T17:21:48.189Z,0.35
2023-03-27T17:24:15.201Z,1.83
2023-03-27T17:26:42.022Z,1.40
2023-03-27T17:29:10.536Z,2.85
2023-03-27T17:31:38.734Z,1.77
2023-03-27T17:34:07.027Z,2.10
2023-03-27T17:36:42.767Z,1.73
2023-03-27T17:39:14.267Z,0.55
2023-03-27T17:41:41.066Z,0.57
2023-03-27T17:44:14.447Z,2.95
2023-03-27T17:46:41.759Z,2.67
2023-03-27T17:49:08.520Z,2.97
2023-03-27T17:51:37.761Z,1.60
2023-03-27T17:54:04.696Z,1.65
2023-03-27T17:56:32.084Z,4.70
2023-03-27T17:59:00.203Z,1.77
2023-03-27T18:01:27.202Z,1.98
2023-03-27T18:03:55.307Z,1.23
2023-03-27T18:06:24.274Z,0.60
2023-03-27T18:08:51.131Z,2.95
2023-03-27T18:11:18.198Z,3.70
2023-03-27T18:13:45.196Z,2.05
2023-03-27T18:16:12.264Z,1.40
2023-03-27T18:18:39.779Z,1.27
2023-03-27T18:21:08.313Z,0.77
2023-03-27T18:23:35.484Z,1.75
2023-03-27T18:26:07.013Z,1.85
2023-03-27T18:28:34.561Z,1.55
2023-03-27T18:31:03.643Z,2.00
2023-03-27T18:33:30.743Z,1.58
2023-03-27T18:35:57.886Z,2.40
2023-03-27T18:38:25.998Z,2.55
2023-03-27T18:40:55.632Z,4.47
2023-03-27T18:43:23.550Z,1.48
2023-03-27T18:46:01.408Z,1.55
2023-03-27T18:48:31.069Z,2.50
2023-03-27T18:51:02.709Z,1.77
2023-03-27T18:53:30.972Z,3.40
2023-03-27T18:55:59.120Z,2.55
2023-03-27T18:58:28.261Z,1.58
2023-03-27T19:00:56.990Z,2.63
2023-03-27T19:03:26.455Z,1.35
2023-03-27T19:05:53.501Z,1.02
2023-03-27T19:08:21.821Z,3.17
2023-03-27T19:10:49.412Z,4.55
2023-03-27T19:13:42.153Z,2.15
2023-03-27T19:16:29.462Z,2.38
2023-03-27T19:19:34.381Z,1.80
2023-03-27T19:22:19.686Z,2.67
2023-03-27T19:24:52.140Z,2.55
2023-03-27T19:27:23.664Z,1.33
2023-03-27T19:29:54.939Z,2.33
2023-03-27T19:32:23.418Z,2.58
2023-03-27T19:34:50.419Z,1.75
2023-03-27T19:37:17.289Z,1.35
2023-03-27T19:39:44.323Z,2.33
2023-03-27T19:42:11.712Z,1.35
2023-03-27T19:44:38.801Z,1.42
2023-03-27T19:47:07.859Z,2.75
2023-03-27T19:49:34.728Z,3.50
2023-03-27T19:52:20.240Z,2.28
2023-03-27T19:54:47.471Z,2.60
2023-03-27T19:57:17.236Z,1.60
2023-03-27T19:59:44.259Z,2.45
2023-03-27T20:02:14.853Z,3.85
2023-03-27T20:04:41.853Z,2.10
2023-03-27T20:07:12.291Z,1.98
2023-03-27T20:09:39.410Z,2.95
2023-03-27T20:12:07.207Z,2.40
2023-03-27T20:14:34.232Z,7.18
2023-03-27T20:17:01.024Z,2.58
2023-03-27T20:19:30.749Z,4.95
2023-03-27T20:22:00.343Z,1.05
2023-03-27T20:24:29.086Z,6.18
2023-03-27T20:26:59.182Z,5.75
2023-03-27T20:29:26.459Z,8.98
2023-03-27T20:31:53.438Z,2.63
2023-03-27T20:34:22.531Z,2.42
2023-03-27T20:36:53.210Z,1.65
2023-03-27T20:39:49.855Z,2.08
2023-03-27T20:42:23.268Z,2.08
2023-03-27T20:44:58.641Z,1.92
2023-03-27T20:47:39.054Z,2.00
2023-03-27T20:50:06.917Z,1.83
2023-03-27T20:52:33.918Z,2.08
2023-03-27T20:55:01.857Z,3.72
2023-03-27T20:57:29.640Z,2.60
2023-03-27T20:59:56.595Z,4.25
2023-03-27T21:02:23.769Z,1.90
2023-03-27T21:04:50.652Z,1.90
2023-03-27T21:07:17.476Z,2.10
2023-03-27T21:09:46.111Z,2.40
2023-03-27T21:12:13.096Z,2.65
2023-03-27T21:14:39.959Z,1.65
2023-03-27T21:17:07.001Z,1.60
2023-03-27T21:19:33.866Z,1.23
2023-03-27T21:22:00.875Z,1.80
2023-03-27T21:24:28.025Z,0.95
2023-03-27T21:26:54.933Z,2.15
2023-03-27T21:29:21.857Z,2.58
2023-03-27T21:31:48.709Z,3.10
2023-03-27T21:34:15.540Z,1.15
2023-03-27T21:36:42.267Z,1.70
2023-03-27T21:39:10.002Z,3.55
2023-03-27T21:41:36.872Z,2.67
2023-03-27T21:44:03.846Z,2.40
2023-03-27T21:46:30.890Z,2.67
2023-03-27T21:48:57.735Z,2.25
2023-03-27T21:51:24.541Z,1.73
2023-03-27T21:53:51.640Z,1.17
2023-03-27T21:56:18.383Z,1.85
2023-03-27T21:58:45.363Z,3.90
2023-03-27T22:01:12.260Z,1.35
2023-03-27T22:03:39.109Z,2.72
2023-03-27T22:06:12.398Z,2.55
2023-03-27T22:08:41.585Z,1.45
2023-03-27T22:11:09.776Z,1.42
2023-03-27T22:13:38.086Z,0.98
2023-03-27T22:16:10.959Z,1.67
2023-03-27T22:18:38.299Z,2.67
2023-03-27T22:21:25.635Z,2.20
2023-03-27T22:23:54.032Z,3.92
2023-03-27T22:26:24.309Z,2.88
2023-03-27T22:28:52.659Z,4.30
2023-03-27T22:31:21.198Z,2.58
2023-03-27T22:33:48.523Z,2.38
2023-03-27T22:36:15.800Z,1.73
2023-03-27T22:38:42.800Z,2.05
2023-03-27T22:41:11.515Z,2.67
2023-03-27T22:43:39.140Z,3.08
2023-03-27T22:46:08.100Z,1.83
2023-03-27T22:48:34.933Z,1.98
2023-03-27T22:51:01.855Z,2.88
2023-03-27T22:53:29.560Z,3.67
2023-03-27T22:55:57.179Z,4.45
2023-03-27T22:58:25.220Z,3.78
2023-03-27T23:00:53.338Z,1.63
2023-03-27T23:03:21.309Z,3.45
2023-03-27T23:05:49.728Z,3.03
2023-03-27T23:08:18.817Z,3.40
2023-03-27T23:10:46.162Z,4.18
2023-03-27T23:13:13.262Z,7.28
2023-03-27T23:15:40.026Z,2.33
2023-03-27T23:18:06.867Z,3.22
2023-03-27T23:20:33.662Z,2.22
2023-03-27T23:23:00.458Z,4.70
2023-03-27T23:25:27.213Z,10.27
2023-03-27T23:27:53.975Z,2.35
2023-03-27T23:30:20.814Z,5.00
2023-03-27T23:32:47.493Z,4.55
2023-03-27T23:35:14.340Z,4.28
2023-03-27T23:37:41.079Z,2.60
2023-03-27T23:40:08.691Z,2.05
2023-03-27T23:42:35.447Z,1.83
2023-03-27T23:45:02.253Z,2.50
2023-03-27T23:47:28.972Z,1.70
2023-03-27T23:49:55.770Z,1.50
2023-03-27T23:52:22.491Z,2.95
2023-03-27T23:54:49.279Z,1.42
2023-03-27T23:57:16.041Z,2.20
2023-03-27T23:59:42.759Z,1.92
